sensor_id;sensor_type;location;lat;lon;timestamp;P1;durP1;ratioP1;P2;durP2;ratioP2
59109;SDS011;44895;47.438;18.978;2024-01-30T00:00:01;27.98;;;16.08;;
59109;SDS011;44895;47.438;18.978;2024-01-30T00:03:07;25.13;;;14.50;;
59109;SDS011;44895;47.438;18.978;2024-01-30T00:06:11;24.55;;;15.07;;
59109;SDS011;44895;47.438;18.978;2024-01-30T00:09:15;27.23;;;12.93;;
59109;SDS011;44895;47.438;18.978;2024-01-30T00:12:19;25.98;;;14.57;;
59109;SDS011;44895;47.438;18.978;2024-01-30T00:15:23;26.05;;;13.27;;
59109;SDS011;44895;47.438;18.978;2024-01-30T00:18:26;22.55;;;12.65;;
59109;SDS011;44895;47.438;18.978;2024-01-30T00:21:30;21.90;;;12.38;;
59109;SDS011;44895;47.438;18.978;2024-01-30T00:24:34;20.67;;;12.57;;
59109;SDS011;44895;47.438;18.978;2024-01-30T00:27:38;16.77;;;11.55;;
59109;SDS011;44895;47.438;18.978;2024-01-30T00:30:41;28.50;;;15.32;;
59109;SDS011;44895;47.438;18.978;2024-01-30T00:33:45;21.23;;;13.90;;
59109;SDS011;44895;47.438;18.978;2024-01-30T00:36:49;24.38;;;17.02;;
59109;SDS011;44895;47.438;18.978;2024-01-30T00:39:53;27.98;;;16.25;;
59109;SDS011;44895;47.438;18.978;2024-01-30T00:42:57;25.73;;;15.63;;
59109;SDS011;44895;47.438;18.978;2024-01-30T00:46:01;26.52;;;16.35;;
59109;SDS011;44895;47.438;18.978;2024-01-30T00:49:05;24.67;;;17.33;;
59109;SDS011;44895;47.438;18.978;2024-01-30T00:52:09;25.50;;;15.77;;
59109;SDS011;44895;47.438;18.978;2024-01-30T00:55:12;23.65;;;14.55;;
59109;SDS011;44895;47.438;18.978;2024-01-30T00:58:17;25.10;;;15.90;;
59109;SDS011;44895;47.438;18.978;2024-01-30T01:01:22;24.17;;;16.70;;
59109;SDS011;44895;47.438;18.978;2024-01-30T01:04:26;30.15;;;19.55;;
59109;SDS011;44895;47.438;18.978;2024-01-30T01:07:30;26.83;;;15.18;;
59109;SDS011;44895;47.438;18.978;2024-01-30T01:10:33;28.65;;;17.52;;
59109;SDS011;44895;47.438;18.978;2024-01-30T01:13:37;25.42;;;15.18;;
59109;SDS011;44895;47.438;18.978;2024-01-30T01:16:41;27.35;;;15.25;;
59109;SDS011;44895;47.438;18.978;2024-01-30T01:19:45;31.75;;;17.25;;
59109;SDS011;44895;47.438;18.978;2024-01-30T01:22:48;23.38;;;16.50;;
59109;SDS011;44895;47.438;18.978;2024-01-30T01:25:52;27.55;;;15.38;;
59109;SDS011;44895;47.438;18.978;2024-01-30T01:28:56;28.75;;;16.95;;
59109;SDS011;44895;47.438;18.978;2024-01-30T01:32:00;23.17;;;14.63;;
59109;SDS011;44895;47.438;18.978;2024-01-30T01:35:04;22.05;;;14.70;;
59109;SDS011;44895;47.438;18.978;2024-01-30T01:38:08;25.90;;;14.35;;
59109;SDS011;44895;47.438;18.978;2024-01-30T01:41:12;25.50;;;13.13;;
59109;SDS011;44895;47.438;18.978;2024-01-30T01:44:17;25.40;;;15.82;;
59109;SDS011;44895;47.438;18.978;2024-01-30T01:47:21;23.00;;;13.98;;
59109;SDS011;44895;47.438;18.978;2024-01-30T01:50:25;20.48;;;13.60;;
59109;SDS011;44895;47.438;18.978;2024-01-30T01:53:29;20.30;;;11.73;;
59109;SDS011;44895;47.438;18.978;2024-01-30T01:56:33;21.90;;;12.60;;
59109;SDS011;44895;47.438;18.978;2024-01-30T01:59:37;22.90;;;13.60;;
59109;SDS011;44895;47.438;18.978;2024-01-30T02:02:41;21.70;;;11.90;;
59109;SDS011;44895;47.438;18.978;2024-01-30T02:05:46;22.20;;;12.52;;
59109;SDS011;44895;47.438;18.978;2024-01-30T02:08:50;23.10;;;14.38;;
59109;SDS011;44895;47.438;18.978;2024-01-30T02:11:54;17.23;;;9.70;;
59109;SDS011;44895;47.438;18.978;2024-01-30T02:14:58;20.23;;;11.80;;
59109;SDS011;44895;47.438;18.978;2024-01-30T02:18:01;24.73;;;12.50;;
59109;SDS011;44895;47.438;18.978;2024-01-30T02:21:05;21.02;;;11.27;;
59109;SDS011;44895;47.438;18.978;2024-01-30T02:24:09;20.10;;;12.35;;
59109;SDS011;44895;47.438;18.978;2024-01-30T02:27:13;22.73;;;12.75;;
59109;SDS011;44895;47.438;18.978;2024-01-30T02:30:17;20.95;;;11.85;;
59109;SDS011;44895;47.438;18.978;2024-01-30T02:33:20;24.02;;;13.18;;
59109;SDS011;44895;47.438;18.978;2024-01-30T02:36:25;22.65;;;12.73;;
59109;SDS011;44895;47.438;18.978;2024-01-30T02:39:29;18.33;;;10.32;;
59109;SDS011;44895;47.438;18.978;2024-01-30T02:42:33;22.75;;;13.75;;
59109;SDS011;44895;47.438;18.978;2024-01-30T02:45:36;18.63;;;11.73;;
59109;SDS011;44895;47.438;18.978;2024-01-30T02:48:40;19.58;;;11.82;;
59109;SDS011;44895;47.438;18.978;2024-01-30T02:51:44;20.73;;;12.85;;
59109;SDS011;44895;47.438;18.978;2024-01-30T02:54:48;20.67;;;12.23;;
59109;SDS011;44895;47.438;18.978;2024-01-30T02:57:51;19.45;;;11.82;;
59109;SDS011;44895;47.438;18.978;2024-01-30T03:00:55;24.63;;;14.90;;
59109;SDS011;44895;47.438;18.978;2024-01-30T03:03:59;25.88;;;14.25;;
59109;SDS011;44895;47.438;18.978;2024-01-30T03:07:02;21.15;;;12.13;;
59109;SDS011;44895;47.438;18.978;2024-01-30T03:10:06;23.52;;;15.60;;
59109;SDS011;44895;47.438;18.978;2024-01-30T03:13:10;20.15;;;13.60;;
59109;SDS011;44895;47.438;18.978;2024-01-30T03:16:14;23.55;;;12.82;;
59109;SDS011;44895;47.438;18.978;2024-01-30T03:19:18;23.58;;;13.90;;
59109;SDS011;44895;47.438;18.978;2024-01-30T03:22:22;23.40;;;14.57;;
59109;SDS011;44895;47.438;18.978;2024-01-30T03:25:26;23.73;;;14.70;;
59109;SDS011;44895;47.438;18.978;2024-01-30T03:28:29;24.77;;;15.48;;
59109;SDS011;44895;47.438;18.978;2024-01-30T03:31:33;25.70;;;15.70;;
59109;SDS011;44895;47.438;18.978;2024-01-30T03:34:37;22.98;;;13.80;;
59109;SDS011;44895;47.438;18.978;2024-01-30T03:37:41;23.42;;;14.43;;
59109;SDS011;44895;47.438;18.978;2024-01-30T03:40:44;23.45;;;13.35;;
59109;SDS011;44895;47.438;18.978;2024-01-30T03:43:48;20.05;;;12.70;;
59109;SDS011;44895;47.438;18.978;2024-01-30T03:46:52;19.83;;;12.45;;
59109;SDS011;44895;47.438;18.978;2024-01-30T03:49:55;19.85;;;12.07;;
59109;SDS011;44895;47.438;18.978;2024-01-30T03:52:59;22.48;;;11.85;;
59109;SDS011;44895;47.438;18.978;2024-01-30T03:56:03;20.70;;;14.27;;
59109;SDS011;44895;47.438;18.978;2024-01-30T03:59:07;20.38;;;13.15;;
59109;SDS011;44895;47.438;18.978;2024-01-30T04:02:11;26.60;;;15.55;;
59109;SDS011;44895;47.438;18.978;2024-01-30T04:05:15;21.63;;;13.00;;
59109;SDS011;44895;47.438;18.978;2024-01-30T04:08:18;18.92;;;11.57;;
59109;SDS011;44895;47.438;18.978;2024-01-30T04:11:22;25.30;;;14.68;;
59109;SDS011;44895;47.438;18.978;2024-01-30T04:14:26;26.05;;;14.38;;
59109;SDS011;44895;47.438;18.978;2024-01-30T04:17:30;25.85;;;15.07;;
59109;SDS011;44895;47.438;18.978;2024-01-30T04:20:33;21.23;;;13.57;;
59109;SDS011;44895;47.438;18.978;2024-01-30T04:23:37;23.08;;;16.77;;
59109;SDS011;44895;47.438;18.978;2024-01-30T04:26:41;24.33;;;14.50;;
59109;SDS011;44895;47.438;18.978;2024-01-30T04:29:45;26.00;;;15.80;;
59109;SDS011;44895;47.438;18.978;2024-01-30T04:32:49;22.40;;;15.18;;
59109;SDS011;44895;47.438;18.978;2024-01-30T04:35:52;23.35;;;15.32;;
59109;SDS011;44895;47.438;18.978;2024-01-30T04:38:56;27.23;;;16.65;;
59109;SDS011;44895;47.438;18.978;2024-01-30T04:42:00;28.63;;;16.67;;
59109;SDS011;44895;47.438;18.978;2024-01-30T04:45:05;22.17;;;14.88;;
59109;SDS011;44895;47.438;18.978;2024-01-30T04:48:09;23.35;;;15.52;;
59109;SDS011;44895;47.438;18.978;2024-01-30T04:51:13;26.55;;;14.38;;
59109;SDS011;44895;47.438;18.978;2024-01-30T04:54:17;23.38;;;15.52;;
59109;SDS011;44895;47.438;18.978;2024-01-30T04:57:20;21.45;;;15.25;;
59109;SDS011;44895;47.438;18.978;2024-01-30T05:00:24;22.63;;;13.45;;
59109;SDS011;44895;47.438;18.978;2024-01-30T05:03:28;21.95;;;13.90;;
59109;SDS011;44895;47.438;18.978;2024-01-30T05:06:32;23.80;;;15.70;;
59109;SDS011;44895;47.438;18.978;2024-01-30T05:09:35;23.88;;;14.13;;
59109;SDS011;44895;47.438;18.978;2024-01-30T05:12:39;28.73;;;16.27;;
59109;SDS011;44895;47.438;18.978;2024-01-30T05:15:43;27.80;;;17.35;;
59109;SDS011;44895;47.438;18.978;2024-01-30T05:18:47;22.38;;;14.40;;
59109;SDS011;44895;47.438;18.978;2024-01-30T05:21:50;23.65;;;14.48;;
59109;SDS011;44895;47.438;18.978;2024-01-30T05:24:54;24.70;;;15.05;;
59109;SDS011;44895;47.438;18.978;2024-01-30T05:27:58;26.45;;;15.02;;
59109;SDS011;44895;47.438;18.978;2024-01-30T05:31:02;18.85;;;12.27;;
59109;SDS011;44895;47.438;18.978;2024-01-30T05:34:05;29.30;;;15.93;;
59109;SDS011;44895;47.438;18.978;2024-01-30T05:37:09;25.52;;;14.80;;
59109;SDS011;44895;47.438;18.978;2024-01-30T05:40:17;21.48;;;15.77;;
59109;SDS011;44895;47.438;18.978;2024-01-30T05:43:21;22.83;;;15.10;;
59109;SDS011;44895;47.438;18.978;2024-01-30T05:46:25;21.70;;;13.18;;
59109;SDS011;44895;47.438;18.978;2024-01-30T05:49:29;27.48;;;16.67;;
59109;SDS011;44895;47.438;18.978;2024-01-30T05:52:32;26.13;;;14.48;;
59109;SDS011;44895;47.438;18.978;2024-01-30T05:55:36;20.33;;;13.90;;
59109;SDS011;44895;47.438;18.978;2024-01-30T05:58:40;22.77;;;14.30;;
59109;SDS011;44895;47.438;18.978;2024-01-30T06:01:47;22.88;;;13.00;;
59109;SDS011;44895;47.438;18.978;2024-01-30T06:04:52;21.00;;;13.63;;
59109;SDS011;44895;47.438;18.978;2024-01-30T06:07:56;23.23;;;14.75;;
59109;SDS011;44895;47.438;18.978;2024-01-30T06:10:59;23.80;;;12.25;;
59109;SDS011;44895;47.438;18.978;2024-01-30T06:14:04;25.25;;;14.95;;
59109;SDS011;44895;47.438;18.978;2024-01-30T06:17:08;23.27;;;13.52;;
59109;SDS011;44895;47.438;18.978;2024-01-30T06:20:12;18.90;;;12.63;;
59109;SDS011;44895;47.438;18.978;2024-01-30T06:23:16;29.58;;;17.13;;
59109;SDS011;44895;47.438;18.978;2024-01-30T06:26:20;23.05;;;12.10;;
59109;SDS011;44895;47.438;18.978;2024-01-30T06:29:23;28.50;;;13.40;;
59109;SDS011;44895;47.438;18.978;2024-01-30T06:32:28;24.63;;;14.68;;
59109;SDS011;44895;47.438;18.978;2024-01-30T06:35:32;25.73;;;16.00;;
59109;SDS011;44895;47.438;18.978;2024-01-30T06:38:35;24.52;;;15.88;;
59109;SDS011;44895;47.438;18.978;2024-01-30T06:41:39;21.90;;;15.50;;
59109;SDS011;44895;47.438;18.978;2024-01-30T06:44:43;33.15;;;17.20;;
59109;SDS011;44895;47.438;18.978;2024-01-30T06:47:47;25.13;;;17.40;;
59109;SDS011;44895;47.438;18.978;2024-01-30T06:50:54;27.00;;;17.42;;
59109;SDS011;44895;47.438;18.978;2024-01-30T06:53:58;22.67;;;14.90;;
59109;SDS011;44895;47.438;18.978;2024-01-30T06:57:02;27.88;;;16.70;;
59109;SDS011;44895;47.438;18.978;2024-01-30T07:00:05;30.35;;;17.05;;
59109;SDS011;44895;47.438;18.978;2024-01-30T07:03:09;29.10;;;17.70;;
59109;SDS011;44895;47.438;18.978;2024-01-30T07:06:13;24.00;;;16.83;;
59109;SDS011;44895;47.438;18.978;2024-01-30T07:09:17;27.80;;;18.30;;
59109;SDS011;44895;47.438;18.978;2024-01-30T07:12:21;31.25;;;16.77;;
59109;SDS011;44895;47.438;18.978;2024-01-30T07:15:24;24.27;;;16.38;;
59109;SDS011;44895;47.438;18.978;2024-01-30T07:18:28;25.67;;;15.23;;
59109;SDS011;44895;47.438;18.978;2024-01-30T07:21:32;28.00;;;17.42;;
59109;SDS011;44895;47.438;18.978;2024-01-30T07:24:35;27.15;;;16.10;;
59109;SDS011;44895;47.438;18.978;2024-01-30T07:27:39;30.92;;;19.10;;
59109;SDS011;44895;47.438;18.978;2024-01-30T07:30:43;29.70;;;17.33;;
59109;SDS011;44895;47.438;18.978;2024-01-30T07:33:47;26.40;;;17.42;;
59109;SDS011;44895;47.438;18.978;2024-01-30T07:36:51;27.98;;;18.23;;
59109;SDS011;44895;47.438;18.978;2024-01-30T07:39:54;26.35;;;18.20;;
59109;SDS011;44895;47.438;18.978;2024-01-30T07:42:58;26.95;;;19.40;;
59109;SDS011;44895;47.438;18.978;2024-01-30T07:46:03;25.02;;;16.67;;
59109;SDS011;44895;47.438;18.978;2024-01-30T07:49:07;26.48;;;16.25;;
59109;SDS011;44895;47.438;18.978;2024-01-30T07:52:10;21.67;;;15.95;;
59109;SDS011;44895;47.438;18.978;2024-01-30T07:55:14;28.17;;;15.80;;
59109;SDS011;44895;47.438;18.978;2024-01-30T07:58:18;24.92;;;16.48;;
59109;SDS011;44895;47.438;18.978;2024-01-30T08:01:22;29.30;;;18.77;;
59109;SDS011;44895;47.438;18.978;2024-01-30T08:04:26;26.15;;;17.20;;
59109;SDS011;44895;47.438;18.978;2024-01-30T08:07:29;21.35;;;14.65;;
59109;SDS011;44895;47.438;18.978;2024-01-30T08:10:34;23.73;;;15.88;;
59109;SDS011;44895;47.438;18.978;2024-01-30T08:13:38;23.60;;;16.40;;
59109;SDS011;44895;47.438;18.978;2024-01-30T08:16:41;32.80;;;17.48;;
59109;SDS011;44895;47.438;18.978;2024-01-30T08:19:45;28.05;;;18.15;;
59109;SDS011;44895;47.438;18.978;2024-01-30T08:22:49;24.60;;;18.33;;
59109;SDS011;44895;47.438;18.978;2024-01-30T08:25:52;29.88;;;19.27;;
59109;SDS011;44895;47.438;18.978;2024-01-30T08:28:56;27.95;;;20.73;;
59109;SDS011;44895;47.438;18.978;2024-01-30T08:32:00;36.17;;;21.90;;
59109;SDS011;44895;47.438;18.978;2024-01-30T08:35:04;27.85;;;20.83;;
59109;SDS011;44895;47.438;18.978;2024-01-30T08:38:08;26.55;;;18.60;;
59109;SDS011;44895;47.438;18.978;2024-01-30T08:41:11;31.85;;;20.90;;
59109;SDS011;44895;47.438;18.978;2024-01-30T08:44:15;35.28;;;23.05;;
59109;SDS011;44895;47.438;18.978;2024-01-30T08:47:19;30.35;;;21.13;;
59109;SDS011;44895;47.438;18.978;2024-01-30T08:50:22;32.40;;;19.95;;
59109;SDS011;44895;47.438;18.978;2024-01-30T08:53:26;30.88;;;20.13;;
59109;SDS011;44895;47.438;18.978;2024-01-30T08:56:30;28.02;;;20.45;;
59109;SDS011;44895;47.438;18.978;2024-01-30T08:59:33;31.27;;;21.52;;
59109;SDS011;44895;47.438;18.978;2024-01-30T09:02:37;31.17;;;18.65;;
59109;SDS011;44895;47.438;18.978;2024-01-30T09:05:41;29.92;;;22.30;;
59109;SDS011;44895;47.438;18.978;2024-01-30T09:08:45;31.88;;;21.10;;
59109;SDS011;44895;47.438;18.978;2024-01-30T09:11:49;29.52;;;21.80;;
59109;SDS011;44895;47.438;18.978;2024-01-30T09:14:53;32.25;;;21.92;;
59109;SDS011;44895;47.438;18.978;2024-01-30T09:17:57;29.38;;;20.15;;
59109;SDS011;44895;47.438;18.978;2024-01-30T09:21:01;27.73;;;20.30;;
59109;SDS011;44895;47.438;18.978;2024-01-30T09:24:04;29.38;;;19.63;;
59109;SDS011;44895;47.438;18.978;2024-01-30T09:27:08;33.55;;;21.67;;
59109;SDS011;44895;47.438;18.978;2024-01-30T09:30:12;28.73;;;20.55;;
59109;SDS011;44895;47.438;18.978;2024-01-30T09:33:16;31.52;;;20.15;;
59109;SDS011;44895;47.438;18.978;2024-01-30T09:36:19;30.15;;;21.15;;
59109;SDS011;44895;47.438;18.978;2024-01-30T09:39:23;33.78;;;21.85;;
59109;SDS011;44895;47.438;18.978;2024-01-30T09:42:33;33.92;;;23.45;;
59109;SDS011;44895;47.438;18.978;2024-01-30T09:45:39;27.80;;;20.92;;
59109;SDS011;44895;47.438;18.978;2024-01-30T09:48:48;28.08;;;21.35;;
59109;SDS011;44895;47.438;18.978;2024-01-30T09:54:59;32.78;;;24.40;;
59109;SDS011;44895;47.438;18.978;2024-01-30T09:58:04;29.48;;;21.70;;
59109;SDS011;44895;47.438;18.978;2024-01-30T10:01:08;33.53;;;21.95;;
59109;SDS011;44895;47.438;18.978;2024-01-30T10:04:12;28.27;;;20.33;;
59109;SDS011;44895;47.438;18.978;2024-01-30T10:07:16;27.17;;;20.13;;
59109;SDS011;44895;47.438;18.978;2024-01-30T10:13:27;29.52;;;17.67;;
59109;SDS011;44895;47.438;18.978;2024-01-30T10:16:31;18.27;;;12.75;;
59109;SDS011;44895;47.438;18.978;2024-01-30T10:19:35;20.73;;;12.73;;
59109;SDS011;44895;47.438;18.978;2024-01-30T10:22:40;26.05;;;16.40;;
59109;SDS011;44895;47.438;18.978;2024-01-30T10:25:46;24.02;;;15.57;;
59109;SDS011;44895;47.438;18.978;2024-01-30T10:28:50;23.50;;;16.63;;
59109;SDS011;44895;47.438;18.978;2024-01-30T10:31:58;26.80;;;17.75;;
59109;SDS011;44895;47.438;18.978;2024-01-30T10:35:02;25.52;;;18.20;;
59109;SDS011;44895;47.438;18.978;2024-01-30T10:38:06;37.38;;;17.45;;
59109;SDS011;44895;47.438;18.978;2024-01-30T10:41:14;26.60;;;16.50;;
59109;SDS011;44895;47.438;18.978;2024-01-30T10:44:22;24.13;;;18.13;;
59109;SDS011;44895;47.438;18.978;2024-01-30T10:47:27;30.83;;;17.35;;
59109;SDS011;44895;47.438;18.978;2024-01-30T10:50:31;24.63;;;15.85;;
59109;SDS011;44895;47.438;18.978;2024-01-30T10:53:38;24.00;;;16.55;;
59109;SDS011;44895;47.438;18.978;2024-01-30T10:56:42;30.25;;;17.80;;
59109;SDS011;44895;47.438;18.978;2024-01-30T10:59:47;24.23;;;17.85;;
59109;SDS011;44895;47.438;18.978;2024-01-30T11:02:51;28.35;;;17.08;;
59109;SDS011;44895;47.438;18.978;2024-01-30T11:05:58;21.88;;;13.40;;
59109;SDS011;44895;47.438;18.978;2024-01-30T11:09:04;22.17;;;14.38;;
59109;SDS011;44895;47.438;18.978;2024-01-30T11:12:12;39.95;;;16.48;;
59109;SDS011;44895;47.438;18.978;2024-01-30T11:15:16;22.00;;;14.80;;
59109;SDS011;44895;47.438;18.978;2024-01-30T11:18:28;23.73;;;14.95;;
59109;SDS011;44895;47.438;18.978;2024-01-30T11:21:33;23.98;;;15.65;;
59109;SDS011;44895;47.438;18.978;2024-01-30T11:24:40;24.90;;;13.98;;
59109;SDS011;44895;47.438;18.978;2024-01-30T11:27:45;24.90;;;15.23;;
59109;SDS011;44895;47.438;18.978;2024-01-30T11:30:50;22.23;;;13.23;;
59109;SDS011;44895;47.438;18.978;2024-01-30T11:33:53;23.13;;;13.73;;
59109;SDS011;44895;47.438;18.978;2024-01-30T11:36:59;19.98;;;13.93;;
59109;SDS011;44895;47.438;18.978;2024-01-30T11:40:05;22.73;;;13.40;;
59109;SDS011;44895;47.438;18.978;2024-01-30T11:43:11;20.75;;;12.73;;
59109;SDS011;44895;47.438;18.978;2024-01-30T11:46:16;22.10;;;14.15;;
59109;SDS011;44895;47.438;18.978;2024-01-30T11:49:20;21.95;;;14.85;;
59109;SDS011;44895;47.438;18.978;2024-01-30T11:52:24;22.80;;;12.05;;
59109;SDS011;44895;47.438;18.978;2024-01-30T11:55:28;25.75;;;16.02;;
59109;SDS011;44895;47.438;18.978;2024-01-30T11:58:33;18.42;;;13.32;;
59109;SDS011;44895;47.438;18.978;2024-01-30T12:01:37;21.10;;;14.32;;
59109;SDS011;44895;47.438;18.978;2024-01-30T12:04:40;23.63;;;12.82;;
59109;SDS011;44895;47.438;18.978;2024-01-30T12:07:45;21.27;;;13.73;;
59109;SDS011;44895;47.438;18.978;2024-01-30T12:10:55;20.23;;;14.17;;
59109;SDS011;44895;47.438;18.978;2024-01-30T12:14:02;22.70;;;14.18;;
59109;SDS011;44895;47.438;18.978;2024-01-30T12:17:05;22.20;;;14.35;;
59109;SDS011;44895;47.438;18.978;2024-01-30T12:20:15;20.95;;;13.50;;
59109;SDS011;44895;47.438;18.978;2024-01-30T12:23:21;19.95;;;12.45;;
59109;SDS011;44895;47.438;18.978;2024-01-30T12:26:28;17.83;;;10.45;;
59109;SDS011;44895;47.438;18.978;2024-01-30T12:29:32;15.68;;;9.27;;
59109;SDS011;44895;47.438;18.978;2024-01-30T12:32:37;16.20;;;10.05;;
59109;SDS011;44895;47.438;18.978;2024-01-30T12:35:45;16.65;;;9.13;;
59109;SDS011;44895;47.438;18.978;2024-01-30T12:38:50;14.45;;;8.40;;
59109;SDS011;44895;47.438;18.978;2024-01-30T12:41:54;17.08;;;10.20;;
59109;SDS011;44895;47.438;18.978;2024-01-30T12:44:58;21.00;;;7.68;;
59109;SDS011;44895;47.438;18.978;2024-01-30T12:48:02;13.48;;;7.05;;
59109;SDS011;44895;47.438;18.978;2024-01-30T12:51:05;13.10;;;7.88;;
59109;SDS011;44895;47.438;18.978;2024-01-30T12:54:09;15.23;;;8.68;;
59109;SDS011;44895;47.438;18.978;2024-01-30T12:57:13;13.10;;;7.47;;
59109;SDS011;44895;47.438;18.978;2024-01-30T13:00:17;15.02;;;8.43;;
59109;SDS011;44895;47.438;18.978;2024-01-30T13:03:20;16.98;;;9.05;;
59109;SDS011;44895;47.438;18.978;2024-01-30T13:06:25;12.88;;;7.43;;
59109;SDS011;44895;47.438;18.978;2024-01-30T13:09:29;13.88;;;7.43;;
59109;SDS011;44895;47.438;18.978;2024-01-30T13:12:34;13.38;;;5.28;;
59109;SDS011;44895;47.438;18.978;2024-01-30T13:15:38;15.40;;;9.65;;
59109;SDS011;44895;47.438;18.978;2024-01-30T13:18:43;12.90;;;6.70;;
59109;SDS011;44895;47.438;18.978;2024-01-30T13:21:47;12.15;;;7.53;;
59109;SDS011;44895;47.438;18.978;2024-01-30T13:24:51;10.35;;;6.28;;
59109;SDS011;44895;47.438;18.978;2024-01-30T13:27:54;14.38;;;7.07;;
59109;SDS011;44895;47.438;18.978;2024-01-30T13:30:58;11.00;;;6.13;;
59109;SDS011;44895;47.438;18.978;2024-01-30T13:34:02;11.52;;;5.80;;
59109;SDS011;44895;47.438;18.978;2024-01-30T13:37:05;12.85;;;7.57;;
59109;SDS011;44895;47.438;18.978;2024-01-30T13:40:09;16.02;;;8.93;;
59109;SDS011;44895;47.438;18.978;2024-01-30T13:43:14;16.55;;;10.00;;
59109;SDS011;44895;47.438;18.978;2024-01-30T13:46:18;13.10;;;6.75;;
59109;SDS011;44895;47.438;18.978;2024-01-30T13:49:22;14.48;;;8.05;;
59109;SDS011;44895;47.438;18.978;2024-01-30T13:52:26;15.55;;;9.13;;
59109;SDS011;44895;47.438;18.978;2024-01-30T13:55:30;19.20;;;8.00;;
59109;SDS011;44895;47.438;18.978;2024-01-30T13:58:34;12.82;;;7.75;;
59109;SDS011;44895;47.438;18.978;2024-01-30T14:01:39;16.30;;;8.57;;
59109;SDS011;44895;47.438;18.978;2024-01-30T14:04:43;16.15;;;9.50;;
59109;SDS011;44895;47.438;18.978;2024-01-30T14:07:47;13.60;;;9.27;;
59109;SDS011;44895;47.438;18.978;2024-01-30T14:10:50;15.52;;;8.27;;
59109;SDS011;44895;47.438;18.978;2024-01-30T14:13:54;14.88;;;8.77;;
59109;SDS011;44895;47.438;18.978;2024-01-30T14:16:58;13.20;;;8.35;;
59109;SDS011;44895;47.438;18.978;2024-01-30T14:20:02;15.10;;;7.70;;
59109;SDS011;44895;47.438;18.978;2024-01-30T14:26:13;15.13;;;8.77;;
59109;SDS011;44895;47.438;18.978;2024-01-30T14:29:17;16.65;;;8.32;;
59109;SDS011;44895;47.438;18.978;2024-01-30T14:32:21;14.57;;;8.38;;
59109;SDS011;44895;47.438;18.978;2024-01-30T14:35:25;15.07;;;8.50;;
59109;SDS011;44895;47.438;18.978;2024-01-30T14:38:29;15.10;;;8.60;;
59109;SDS011;44895;47.438;18.978;2024-01-30T14:41:32;13.07;;;7.72;;
59109;SDS011;44895;47.438;18.978;2024-01-30T14:44:36;18.30;;;9.52;;
59109;SDS011;44895;47.438;18.978;2024-01-30T14:47:40;15.82;;;10.18;;
59109;SDS011;44895;47.438;18.978;2024-01-30T14:50:44;20.17;;;8.68;;
59109;SDS011;44895;47.438;18.978;2024-01-30T14:53:48;17.45;;;9.98;;
59109;SDS011;44895;47.438;18.978;2024-01-30T14:56:51;18.40;;;9.95;;
59109;SDS011;44895;47.438;18.978;2024-01-30T14:59:56;20.27;;;9.27;;
59109;SDS011;44895;47.438;18.978;2024-01-30T15:03:00;17.38;;;8.90;;
59109;SDS011;44895;47.438;18.978;2024-01-30T15:06:04;14.80;;;9.73;;
59109;SDS011;44895;47.438;18.978;2024-01-30T15:09:08;16.30;;;9.48;;
59109;SDS011;44895;47.438;18.978;2024-01-30T15:12:11;18.13;;;10.70;;
59109;SDS011;44895;47.438;18.978;2024-01-30T15:15:15;16.25;;;10.38;;
59109;SDS011;44895;47.438;18.978;2024-01-30T15:18:19;19.27;;;10.45;;
59109;SDS011;44895;47.438;18.978;2024-01-30T15:21:23;16.88;;;10.95;;
59109;SDS011;44895;47.438;18.978;2024-01-30T15:24:26;16.35;;;9.48;;
59109;SDS011;44895;47.438;18.978;2024-01-30T15:27:30;18.08;;;10.18;;
59109;SDS011;44895;47.438;18.978;2024-01-30T15:30:34;16.98;;;8.98;;
59109;SDS011;44895;47.438;18.978;2024-01-30T15:33:38;14.05;;;8.50;;
59109;SDS011;44895;47.438;18.978;2024-01-30T15:36:42;18.33;;;10.15;;
59109;SDS011;44895;47.438;18.978;2024-01-30T15:39:45;14.90;;;8.85;;
59109;SDS011;44895;47.438;18.978;2024-01-30T15:42:49;15.15;;;9.85;;
59109;SDS011;44895;47.438;18.978;2024-01-30T15:45:53;19.00;;;12.40;;
59109;SDS011;44895;47.438;18.978;2024-01-30T15:48:56;16.52;;;9.35;;
59109;SDS011;44895;47.438;18.978;2024-01-30T15:52:00;22.00;;;10.43;;
59109;SDS011;44895;47.438;18.978;2024-01-30T15:55:04;20.00;;;11.85;;
59109;SDS011;44895;47.438;18.978;2024-01-30T15:58:08;17.52;;;10.10;;
59109;SDS011;44895;47.438;18.978;2024-01-30T16:01:11;27.52;;;12.80;;
59109;SDS011;44895;47.438;18.978;2024-01-30T16:04:15;20.45;;;10.10;;
59109;SDS011;44895;47.438;18.978;2024-01-30T16:07:19;20.52;;;12.95;;
59109;SDS011;44895;47.438;18.978;2024-01-30T16:10:23;23.17;;;11.00;;
59109;SDS011;44895;47.438;18.978;2024-01-30T16:13:27;18.15;;;12.27;;
59109;SDS011;44895;47.438;18.978;2024-01-30T16:16:31;23.15;;;12.77;;
59109;SDS011;44895;47.438;18.978;2024-01-30T16:19:35;25.17;;;12.32;;
59109;SDS011;44895;47.438;18.978;2024-01-30T16:22:39;18.02;;;12.40;;
59109;SDS011;44895;47.438;18.978;2024-01-30T16:25:43;19.73;;;14.10;;
59109;SDS011;44895;47.438;18.978;2024-01-30T16:28:47;24.10;;;14.90;;
59109;SDS011;44895;47.438;18.978;2024-01-30T16:31:51;25.00;;;13.52;;
59109;SDS011;44895;47.438;18.978;2024-01-30T16:34:54;27.25;;;16.25;;
59109;SDS011;44895;47.438;18.978;2024-01-30T16:37:59;22.23;;;12.93;;
59109;SDS011;44895;47.438;18.978;2024-01-30T16:41:03;19.65;;;12.68;;
59109;SDS011;44895;47.438;18.978;2024-01-30T16:44:07;23.52;;;15.30;;
59109;SDS011;44895;47.438;18.978;2024-01-30T16:47:11;23.50;;;15.18;;
59109;SDS011;44895;47.438;18.978;2024-01-30T16:50:14;23.75;;;15.70;;
59109;SDS011;44895;47.438;18.978;2024-01-30T16:53:18;26.88;;;15.18;;
59109;SDS011;44895;47.438;18.978;2024-01-30T16:56:22;23.02;;;15.32;;
59109;SDS011;44895;47.438;18.978;2024-01-30T16:59:26;22.90;;;15.60;;
59109;SDS011;44895;47.438;18.978;2024-01-30T17:02:30;23.08;;;15.65;;
59109;SDS011;44895;47.438;18.978;2024-01-30T17:05:33;21.08;;;14.25;;
59109;SDS011;44895;47.438;18.978;2024-01-30T17:08:37;24.88;;;16.27;;
59109;SDS011;44895;47.438;18.978;2024-01-30T17:11:41;24.92;;;15.13;;
59109;SDS011;44895;47.438;18.978;2024-01-30T17:14:45;24.85;;;16.05;;
59109;SDS011;44895;47.438;18.978;2024-01-30T17:17:50;26.77;;;16.85;;
59109;SDS011;44895;47.438;18.978;2024-01-30T17:20:54;26.77;;;18.08;;
59109;SDS011;44895;47.438;18.978;2024-01-30T17:23:57;23.90;;;16.90;;
59109;SDS011;44895;47.438;18.978;2024-01-30T17:27:01;28.90;;;17.60;;
59109;SDS011;44895;47.438;18.978;2024-01-30T17:30:05;24.83;;;16.55;;
59109;SDS011;44895;47.438;18.978;2024-01-30T17:33:09;32.80;;;17.75;;
59109;SDS011;44895;47.438;18.978;2024-01-30T17:36:13;26.20;;;18.00;;
59109;SDS011;44895;47.438;18.978;2024-01-30T17:39:17;29.23;;;17.13;;
59109;SDS011;44895;47.438;18.978;2024-01-30T17:42:21;31.77;;;18.35;;
59109;SDS011;44895;47.438;18.978;2024-01-30T17:45:27;25.15;;;17.45;;
59109;SDS011;44895;47.438;18.978;2024-01-30T17:48:30;42.72;;;20.13;;
59109;SDS011;44895;47.438;18.978;2024-01-30T17:51:37;37.50;;;22.80;;